sensor_id;sensor_type;location;lat;lon;timestamp;P1;durP1;ratioP1;P2;durP2;ratioP2
1412;SDS011;701;52.526;13.408;2022-08-04T00:02:23;8.60;;;4.60;;
1412;SDS011;701;52.526;13.408;2022-08-04T00:07:45;8.80;;;4.97;;
1412;SDS011;701;52.526;13.408;2022-08-04T00:10:32;10.20;;;5.32;;
1412;SDS011;701;52.526;13.408;2022-08-04T00:13:01;8.05;;;4.65;;
1412;SDS011;701;52.526;13.408;2022-08-04T00:15:29;10.30;;;4.80;;
1412;SDS011;701;52.526;13.408;2022-08-04T00:18:04;13.00;;;5.03;;
1412;SDS011;701;52.526;13.408;2022-08-04T00:20:32;9.63;;;5.30;;
1412;SDS011;701;52.526;13.408;2022-08-04T00:23:02;12.07;;;4.60;;
1412;SDS011;701;52.526;13.408;2022-08-04T00:25:29;8.32;;;4.65;;
1412;SDS011;701;52.526;13.408;2022-08-04T00:27:55;10.23;;;4.90;;
1412;SDS011;701;52.526;13.408;2022-08-04T00:30:21;9.43;;;4.70;;
1412;SDS011;701;52.526;13.408;2022-08-04T00:32:48;12.25;;;4.55;;
1412;SDS011;701;52.526;13.408;2022-08-04T00:35:15;9.20;;;4.32;;
1412;SDS011;701;52.526;13.408;2022-08-04T00:37:45;11.00;;;4.80;;
1412;SDS011;701;52.526;13.408;2022-08-04T00:40:20;7.88;;;4.40;;
1412;SDS011;701;52.526;13.408;2022-08-04T00:43:02;8.23;;;4.45;;
1412;SDS011;701;52.526;13.408;2022-08-04T00:45:40;13.20;;;4.80;;
1412;SDS011;701;52.526;13.408;2022-08-04T00:48:22;7.82;;;4.45;;
1412;SDS011;701;52.526;13.408;2022-08-04T00:53:54;8.00;;;4.18;;
1412;SDS011;701;52.526;13.408;2022-08-04T01:10:52;9.48;;;4.70;;
1412;SDS011;701;52.526;13.408;2022-08-04T01:16:22;8.18;;;4.70;;
1412;SDS011;701;52.526;13.408;2022-08-04T01:24:18;8.80;;;4.53;;
1412;SDS011;701;52.526;13.408;2022-08-04T01:27:17;9.15;;;4.35;;
1412;SDS011;701;52.526;13.408;2022-08-04T01:29:55;8.60;;;3.95;;
1412;SDS011;701;52.526;13.408;2022-08-04T01:32:25;11.60;;;4.53;;
1412;SDS011;701;52.526;13.408;2022-08-04T01:34:58;10.07;;;4.35;;
1412;SDS011;701;52.526;13.408;2022-08-04T01:40:30;11.07;;;4.47;;
1412;SDS011;701;52.526;13.408;2022-08-04T01:42:57;10.80;;;4.47;;
1412;SDS011;701;52.526;13.408;2022-08-04T01:45:24;10.00;;;4.50;;
1412;SDS011;701;52.526;13.408;2022-08-04T01:47:51;11.07;;;4.60;;
1412;SDS011;701;52.526;13.408;2022-08-04T01:50:19;9.25;;;4.68;;
1412;SDS011;701;52.526;13.408;2022-08-04T01:52:46;8.95;;;4.43;;
1412;SDS011;701;52.526;13.408;2022-08-04T01:55:16;10.97;;;5.17;;
1412;SDS011;701;52.526;13.408;2022-08-04T01:57:46;7.70;;;4.63;;
1412;SDS011;701;52.526;13.408;2022-08-04T02:00:17;8.48;;;4.40;;
1412;SDS011;701;52.526;13.408;2022-08-04T02:02:45;9.70;;;4.70;;
1412;SDS011;701;52.526;13.408;2022-08-04T02:05:13;9.85;;;5.18;;
1412;SDS011;701;52.526;13.408;2022-08-04T02:10:29;10.30;;;4.45;;
1412;SDS011;701;52.526;13.408;2022-08-04T02:15:46;9.93;;;4.30;;
1412;SDS011;701;52.526;13.408;2022-08-04T02:18:27;8.23;;;4.43;;
1412;SDS011;701;52.526;13.408;2022-08-04T02:20:57;7.90;;;4.40;;
1412;SDS011;701;52.526;13.408;2022-08-04T02:23:37;8.70;;;4.63;;
1412;SDS011;701;52.526;13.408;2022-08-04T02:26:11;9.82;;;4.65;;
1412;SDS011;701;52.526;13.408;2022-08-04T02:28:45;8.02;;;4.30;;
1412;SDS011;701;52.526;13.408;2022-08-04T02:36:46;8.82;;;4.78;;
1412;SDS011;701;52.526;13.408;2022-08-04T02:39:16;9.65;;;4.35;;
1412;SDS011;701;52.526;13.408;2022-08-04T02:41:44;7.35;;;4.18;;
1412;SDS011;701;52.526;13.408;2022-08-04T02:44:11;7.72;;;4.88;;
1412;SDS011;701;52.526;13.408;2022-08-04T02:46:38;8.77;;;4.70;;
1412;SDS011;701;52.526;13.408;2022-08-04T02:49:06;11.82;;;4.43;;
1412;SDS011;701;52.526;13.408;2022-08-04T02:51:35;9.27;;;4.68;;
1412;SDS011;701;52.526;13.408;2022-08-04T02:54:02;9.60;;;4.40;;
1412;SDS011;701;52.526;13.408;2022-08-04T02:56:30;7.75;;;4.82;;
1412;SDS011;701;52.526;13.408;2022-08-04T02:59:01;8.30;;;5.03;;
1412;SDS011;701;52.526;13.408;2022-08-04T03:01:37;8.75;;;4.97;;
1412;SDS011;701;52.526;13.408;2022-08-04T03:04:17;9.05;;;5.03;;
1412;SDS011;701;52.526;13.408;2022-08-04T03:13:10;8.50;;;5.20;;
1412;SDS011;701;52.526;13.408;2022-08-04T03:24:28;8.82;;;5.20;;
1412;SDS011;701;52.526;13.408;2022-08-04T03:32:33;15.77;;;5.20;;
1412;SDS011;701;52.526;13.408;2022-08-04T03:35:12;10.68;;;5.05;;
1412;SDS011;701;52.526;13.408;2022-08-04T03:40:52;10.50;;;4.77;;
1412;SDS011;701;52.526;13.408;2022-08-04T03:46:30;9.52;;;4.78;;
1412;SDS011;701;52.526;13.408;2022-08-04T03:49:27;10.02;;;5.53;;
1412;SDS011;701;52.526;13.408;2022-08-04T03:52:27;14.73;;;4.78;;
1412;SDS011;701;52.526;13.408;2022-08-04T04:04:00;9.65;;;5.03;;
1412;SDS011;701;52.526;13.408;2022-08-04T04:12:31;9.48;;;5.63;;
1412;SDS011;701;52.526;13.408;2022-08-04T04:15:01;13.13;;;5.97;;
1412;SDS011;701;52.526;13.408;2022-08-04T04:18:02;11.93;;;5.30;;
1412;SDS011;701;52.526;13.408;2022-08-04T04:23:22;11.07;;;5.50;;
1412;SDS011;701;52.526;13.408;2022-08-04T04:29:00;10.02;;;5.38;;
1412;SDS011;701;52.526;13.408;2022-08-04T04:31:41;8.90;;;5.78;;
1412;SDS011;701;52.526;13.408;2022-08-04T04:40:07;8.00;;;5.53;;
1412;SDS011;701;52.526;13.408;2022-08-04T04:45:47;10.82;;;5.22;;
1412;SDS011;701;52.526;13.408;2022-08-04T04:54:05;11.45;;;6.13;;
1412;SDS011;701;52.526;13.408;2022-08-04T04:59:35;13.68;;;6.50;;
1412;SDS011;701;52.526;13.408;2022-08-04T05:07:36;12.02;;;6.20;;
1412;SDS011;701;52.526;13.408;2022-08-04T05:10:09;13.90;;;7.00;;
1412;SDS011;701;52.526;13.408;2022-08-04T05:15:43;12.23;;;6.43;;
1412;SDS011;701;52.526;13.408;2022-08-04T05:18:13;15.43;;;7.07;;
1412;SDS011;701;52.526;13.408;2022-08-04T05:20:47;23.58;;;7.47;;
1412;SDS011;701;52.526;13.408;2022-08-04T05:23:23;22.13;;;7.07;;
1412;SDS011;701;52.526;13.408;2022-08-04T05:25:56;14.43;;;6.85;;
1412;SDS011;701;52.526;13.408;2022-08-04T05:28:38;21.10;;;6.93;;
1412;SDS011;701;52.526;13.408;2022-08-04T05:31:15;13.13;;;6.40;;
1412;SDS011;701;52.526;13.408;2022-08-04T05:34:01;10.65;;;6.53;;
1412;SDS011;701;52.526;13.408;2022-08-04T05:36:37;13.63;;;7.47;;
1412;SDS011;701;52.526;13.408;2022-08-04T05:39:06;15.45;;;7.78;;
1412;SDS011;701;52.526;13.408;2022-08-04T05:41:37;18.08;;;7.60;;
1412;SDS011;701;52.526;13.408;2022-08-04T05:44:04;15.80;;;6.93;;
1412;SDS011;701;52.526;13.408;2022-08-04T05:46:33;14.65;;;6.20;;
1412;SDS011;701;52.526;13.408;2022-08-04T05:49:00;17.90;;;6.80;;
1412;SDS011;701;52.526;13.408;2022-08-04T05:51:27;11.18;;;6.78;;
1412;SDS011;701;52.526;13.408;2022-08-04T05:53:54;22.20;;;10.88;;
1412;SDS011;701;52.526;13.408;2022-08-04T05:56:21;17.97;;;9.27;;
1412;SDS011;701;52.526;13.408;2022-08-04T05:58:48;15.27;;;6.95;;
1412;SDS011;701;52.526;13.408;2022-08-04T06:01:16;10.88;;;6.50;;
1412;SDS011;701;52.526;13.408;2022-08-04T06:03:43;15.25;;;7.43;;
1412;SDS011;701;52.526;13.408;2022-08-04T06:06:10;16.15;;;7.10;;
1412;SDS011;701;52.526;13.408;2022-08-04T06:08:36;15.40;;;6.90;;
1412;SDS011;701;52.526;13.408;2022-08-04T06:11:04;14.98;;;8.20;;
1412;SDS011;701;52.526;13.408;2022-08-04T06:14:06;14.23;;;7.72;;
1412;SDS011;701;52.526;13.408;2022-08-04T06:16:28;12.57;;;6.65;;
1412;SDS011;701;52.526;13.408;2022-08-04T06:19:02;14.60;;;7.10;;
1412;SDS011;701;52.526;13.408;2022-08-04T06:21:31;13.73;;;7.00;;
1412;SDS011;701;52.526;13.408;2022-08-04T06:23:58;13.05;;;7.30;;
1412;SDS011;701;52.526;13.408;2022-08-04T06:26:25;20.63;;;7.38;;
1412;SDS011;701;52.526;13.408;2022-08-04T06:28:54;19.13;;;7.50;;
1412;SDS011;701;52.526;13.408;2022-08-04T06:31:21;13.67;;;7.10;;
1412;SDS011;701;52.526;13.408;2022-08-04T06:34:08;17.70;;;6.65;;
1412;SDS011;701;52.526;13.408;2022-08-04T06:36:35;14.57;;;7.18;;
1412;SDS011;701;52.526;13.408;2022-08-04T06:39:06;15.30;;;7.30;;
1412;SDS011;701;52.526;13.408;2022-08-04T06:41:33;17.95;;;7.60;;
1412;SDS011;701;52.526;13.408;2022-08-04T06:44:02;15.37;;;6.73;;
1412;SDS011;701;52.526;13.408;2022-08-04T06:46:36;17.58;;;7.53;;
1412;SDS011;701;52.526;13.408;2022-08-04T06:49:04;17.25;;;7.03;;
1412;SDS011;701;52.526;13.408;2022-08-04T06:51:30;14.63;;;7.05;;
1412;SDS011;701;52.526;13.408;2022-08-04T06:53:58;16.42;;;7.15;;
1412;SDS011;701;52.526;13.408;2022-08-04T06:56:24;17.37;;;6.87;;
1412;SDS011;701;52.526;13.408;2022-08-04T06:58:53;17.77;;;6.30;;
1412;SDS011;701;52.526;13.408;2022-08-04T07:01:20;17.75;;;7.88;;
1412;SDS011;701;52.526;13.408;2022-08-04T07:03:47;11.10;;;6.38;;
1412;SDS011;701;52.526;13.408;2022-08-04T07:06:13;12.82;;;6.20;;
1412;SDS011;701;52.526;13.408;2022-08-04T07:08:39;16.30;;;6.20;;
1412;SDS011;701;52.526;13.408;2022-08-04T07:11:05;12.07;;;5.90;;
1412;SDS011;701;52.526;13.408;2022-08-04T07:13:32;10.90;;;6.20;;
1412;SDS011;701;52.526;13.408;2022-08-04T07:15:58;13.17;;;5.80;;
1412;SDS011;701;52.526;13.408;2022-08-04T07:18:25;8.45;;;5.15;;
1412;SDS011;701;52.526;13.408;2022-08-04T07:20:51;11.88;;;5.65;;
1412;SDS011;701;52.526;13.408;2022-08-04T07:23:21;10.80;;;5.60;;
1412;SDS011;701;52.526;13.408;2022-08-04T07:25:50;14.35;;;6.50;;
1412;SDS011;701;52.526;13.408;2022-08-04T07:28:17;13.47;;;6.10;;
1412;SDS011;701;52.526;13.408;2022-08-04T07:30:44;11.43;;;5.82;;
1412;SDS011;701;52.526;13.408;2022-08-04T07:33:13;10.00;;;5.38;;
1412;SDS011;701;52.526;13.408;2022-08-04T07:35:40;15.15;;;5.60;;
1412;SDS011;701;52.526;13.408;2022-08-04T07:38:07;14.20;;;5.97;;
1412;SDS011;701;52.526;13.408;2022-08-04T07:40:35;10.73;;;5.43;;
1412;SDS011;701;52.526;13.408;2022-08-04T07:43:01;19.63;;;5.70;;
1412;SDS011;701;52.526;13.408;2022-08-04T07:45:28;11.25;;;5.20;;
1412;SDS011;701;52.526;13.408;2022-08-04T07:47:54;13.63;;;4.97;;
1412;SDS011;701;52.526;13.408;2022-08-04T07:50:21;10.38;;;5.25;;
1412;SDS011;701;52.526;13.408;2022-08-04T07:52:47;9.00;;;4.90;;
1412;SDS011;701;52.526;13.408;2022-08-04T07:55:13;9.85;;;4.95;;
1412;SDS011;701;52.526;13.408;2022-08-04T07:57:39;14.93;;;5.40;;
1412;SDS011;701;52.526;13.408;2022-08-04T08:00:05;9.60;;;6.30;;
1412;SDS011;701;52.526;13.408;2022-08-04T08:02:37;11.70;;;5.70;;
1412;SDS011;701;52.526;13.408;2022-08-04T08:05:03;14.60;;;6.93;;
1412;SDS011;701;52.526;13.408;2022-08-04T08:07:29;13.07;;;6.70;;
1412;SDS011;701;52.526;13.408;2022-08-04T08:09:55;12.50;;;6.50;;
1412;SDS011;701;52.526;13.408;2022-08-04T08:12:20;12.15;;;7.28;;
1412;SDS011;701;52.526;13.408;2022-08-04T08:14:47;14.25;;;7.97;;
1412;SDS011;701;52.526;13.408;2022-08-04T08:17:13;10.32;;;7.22;;
1412;SDS011;701;52.526;13.408;2022-08-04T08:19:39;12.33;;;7.23;;
1412;SDS011;701;52.526;13.408;2022-08-04T08:22:04;11.65;;;7.60;;
1412;SDS011;701;52.526;13.408;2022-08-04T08:24:32;10.88;;;6.85;;
1412;SDS011;701;52.526;13.408;2022-08-04T08:27:00;14.17;;;8.03;;
1412;SDS011;701;52.526;13.408;2022-08-04T08:29:28;14.52;;;7.60;;
1412;SDS011;701;52.526;13.408;2022-08-04T08:31:56;10.40;;;7.70;;
1412;SDS011;701;52.526;13.408;2022-08-04T08:34:24;13.40;;;8.13;;
1412;SDS011;701;52.526;13.408;2022-08-04T08:36:59;11.18;;;6.90;;
1412;SDS011;701;52.526;13.408;2022-08-04T08:39:35;13.90;;;7.40;;
1412;SDS011;701;52.526;13.408;2022-08-04T08:47:52;8.60;;;6.32;;
1412;SDS011;701;52.526;13.408;2022-08-04T08:56:08;13.52;;;7.00;;
1412;SDS011;701;52.526;13.408;2022-08-04T08:58:46;13.35;;;7.00;;
1412;SDS011;701;52.526;13.408;2022-08-04T09:15:28;9.55;;;6.57;;
1412;SDS011;701;52.526;13.408;2022-08-04T09:18:22;10.27;;;6.50;;
1412;SDS011;701;52.526;13.408;2022-08-04T09:20:58;10.17;;;6.97;;
1412;SDS011;701;52.526;13.408;2022-08-04T09:23:35;14.35;;;7.03;;
1412;SDS011;701;52.526;13.408;2022-08-04T09:26:26;12.35;;;6.90;;
1412;SDS011;701;52.526;13.408;2022-08-04T09:29:14;13.00;;;6.70;;
1412;SDS011;701;52.526;13.408;2022-08-04T09:35:00;8.70;;;6.40;;
1412;SDS011;701;52.526;13.408;2022-08-04T09:37:56;10.80;;;6.60;;
1412;SDS011;701;52.526;13.408;2022-08-04T09:46:07;11.85;;;5.93;;
1412;SDS011;701;52.526;13.408;2022-08-04T09:59:42;12.35;;;6.13;;
1412;SDS011;701;52.526;13.408;2022-08-04T10:02:10;8.20;;;6.13;;
1412;SDS011;701;52.526;13.408;2022-08-04T10:04:42;12.55;;;5.38;;
1412;SDS011;701;52.526;13.408;2022-08-04T10:07:26;9.30;;;5.18;;
1412;SDS011;701;52.526;13.408;2022-08-04T10:24:30;9.33;;;4.50;;
1412;SDS011;701;52.526;13.408;2022-08-04T10:27:06;7.95;;;4.28;;
1412;SDS011;701;52.526;13.408;2022-08-04T10:29:37;7.22;;;4.43;;
1412;SDS011;701;52.526;13.408;2022-08-04T10:37:39;6.67;;;4.10;;
1412;SDS011;701;52.526;13.408;2022-08-04T10:46:30;8.85;;;3.92;;
1412;SDS011;701;52.526;13.408;2022-08-04T10:49:03;6.18;;;4.05;;
1412;SDS011;701;52.526;13.408;2022-08-04T10:54:28;8.10;;;3.38;;
1412;SDS011;701;52.526;13.408;2022-08-04T11:00:03;7.78;;;3.92;;
1412;SDS011;701;52.526;13.408;2022-08-04T11:08:02;6.60;;;3.75;;
1412;SDS011;701;52.526;13.408;2022-08-04T11:10:39;7.55;;;4.03;;
1412;SDS011;701;52.526;13.408;2022-08-04T11:13:10;6.90;;;4.10;;
1412;SDS011;701;52.526;13.408;2022-08-04T11:15:40;8.60;;;3.85;;
1412;SDS011;701;52.526;13.408;2022-08-04T11:21:13;10.02;;;3.95;;
1412;SDS011;701;52.526;13.408;2022-08-04T11:23:45;8.98;;;4.43;;
1412;SDS011;701;52.526;13.408;2022-08-04T11:26:20;6.18;;;3.35;;
1412;SDS011;701;52.526;13.408;2022-08-04T11:31:34;6.73;;;3.60;;
1412;SDS011;701;52.526;13.408;2022-08-04T11:34:05;8.32;;;3.90;;
1412;SDS011;701;52.526;13.408;2022-08-04T11:36:51;7.82;;;4.15;;
1412;SDS011;701;52.526;13.408;2022-08-04T11:39:37;7.95;;;3.88;;
1412;SDS011;701;52.526;13.408;2022-08-04T11:42:17;7.05;;;3.75;;
1412;SDS011;701;52.526;13.408;2022-08-04T11:52:47;7.25;;;4.10;;
1412;SDS011;701;52.526;13.408;2022-08-04T11:55:16;6.47;;;3.45;;
1412;SDS011;701;52.526;13.408;2022-08-04T11:57:45;14.67;;;8.97;;
1412;SDS011;701;52.526;13.408;2022-08-04T12:00:12;6.75;;;3.45;;
1412;SDS011;701;52.526;13.408;2022-08-04T12:05:20;5.68;;;3.53;;
1412;SDS011;701;52.526;13.408;2022-08-04T12:08:17;5.97;;;3.90;;
1412;SDS011;701;52.526;13.408;2022-08-04T12:11:04;7.43;;;3.77;;
1412;SDS011;701;52.526;13.408;2022-08-04T12:13:53;5.93;;;3.25;;
1412;SDS011;701;52.526;13.408;2022-08-04T12:16:35;13.63;;;3.85;;
1412;SDS011;701;52.526;13.408;2022-08-04T12:22:18;5.53;;;3.13;;
1412;SDS011;701;52.526;13.408;2022-08-04T12:25:07;10.03;;;3.67;;
1412;SDS011;701;52.526;13.408;2022-08-04T12:27:42;7.47;;;3.30;;
1412;SDS011;701;52.526;13.408;2022-08-04T12:30:13;6.15;;;3.47;;
1412;SDS011;701;52.526;13.408;2022-08-04T12:32:46;5.88;;;3.63;;
1412;SDS011;701;52.526;13.408;2022-08-04T12:38:04;9.67;;;3.57;;
1412;SDS011;701;52.526;13.408;2022-08-04T12:40:40;7.25;;;3.78;;
1412;SDS011;701;52.526;13.408;2022-08-04T12:43:15;7.05;;;3.90;;
1412;SDS011;701;52.526;13.408;2022-08-04T12:45:49;5.82;;;2.92;;
1412;SDS011;701;52.526;13.408;2022-08-04T12:48:17;8.23;;;3.95;;
1412;SDS011;701;52.526;13.408;2022-08-04T12:50:47;8.40;;;3.80;;
1412;SDS011;701;52.526;13.408;2022-08-04T12:53:16;7.45;;;3.65;;
1412;SDS011;701;52.526;13.408;2022-08-04T12:55:45;7.50;;;3.22;;
1412;SDS011;701;52.526;13.408;2022-08-04T12:58:17;6.45;;;3.38;;
1412;SDS011;701;52.526;13.408;2022-08-04T13:01:01;7.45;;;3.50;;
1412;SDS011;701;52.526;13.408;2022-08-04T13:03:36;6.00;;;3.07;;
1412;SDS011;701;52.526;13.408;2022-08-04T13:06:06;7.93;;;3.03;;
1412;SDS011;701;52.526;13.408;2022-08-04T13:08:35;5.75;;;3.17;;
1412;SDS011;701;52.526;13.408;2022-08-04T13:11:04;8.63;;;3.53;;
1412;SDS011;701;52.526;13.408;2022-08-04T13:13:32;7.65;;;3.30;;
1412;SDS011;701;52.526;13.408;2022-08-04T13:16:04;4.90;;;2.60;;
1412;SDS011;701;52.526;13.408;2022-08-04T13:18:32;9.27;;;3.35;;
1412;SDS011;701;52.526;13.408;2022-08-04T13:23:42;9.73;;;3.15;;
1412;SDS011;701;52.526;13.408;2022-08-04T13:26:13;9.23;;;3.22;;
1412;SDS011;701;52.526;13.408;2022-08-04T13:28:40;5.30;;;3.07;;
1412;SDS011;701;52.526;13.408;2022-08-04T13:31:13;8.63;;;3.60;;
1412;SDS011;701;52.526;13.408;2022-08-04T13:33:42;5.47;;;3.03;;
1412;SDS011;701;52.526;13.408;2022-08-04T13:36:09;6.75;;;2.55;;
1412;SDS011;701;52.526;13.408;2022-08-04T13:38:50;5.30;;;2.97;;
1412;SDS011;701;52.526;13.408;2022-08-04T13:41:19;7.30;;;2.90;;
1412;SDS011;701;52.526;13.408;2022-08-04T13:43:51;6.03;;;3.30;;
1412;SDS011;701;52.526;13.408;2022-08-04T13:46:21;5.45;;;2.70;;
1412;SDS011;701;52.526;13.408;2022-08-04T13:48:51;7.72;;;2.78;;
1412;SDS011;701;52.526;13.408;2022-08-04T13:51:17;5.97;;;3.40;;
1412;SDS011;701;52.526;13.408;2022-08-04T13:53:53;10.37;;;2.87;;
1412;SDS011;701;52.526;13.408;2022-08-04T13:56:21;4.60;;;2.78;;
1412;SDS011;701;52.526;13.408;2022-08-04T13:58:48;9.05;;;2.80;;
1412;SDS011;701;52.526;13.408;2022-08-04T14:01:24;16.77;;;3.40;;
1412;SDS011;701;52.526;13.408;2022-08-04T14:03:56;7.70;;;2.70;;
1412;SDS011;701;52.526;13.408;2022-08-04T14:06:24;9.23;;;3.03;;
1412;SDS011;701;52.526;13.408;2022-08-04T14:08:55;7.95;;;2.40;;
1412;SDS011;701;52.526;13.408;2022-08-04T14:11:29;6.50;;;2.42;;
1412;SDS011;701;52.526;13.408;2022-08-04T14:14:11;5.85;;;2.38;;
1412;SDS011;701;52.526;13.408;2022-08-04T14:19:29;7.87;;;2.80;;
1412;SDS011;701;52.526;13.408;2022-08-04T14:22:35;4.88;;;2.35;;
1412;SDS011;701;52.526;13.408;2022-08-04T14:25:10;8.70;;;2.78;;
1412;SDS011;701;52.526;13.408;2022-08-04T14:35:25;4.82;;;2.45;;
1412;SDS011;701;52.526;13.408;2022-08-04T14:37:52;6.25;;;2.60;;
1412;SDS011;701;52.526;13.408;2022-08-04T14:40:26;7.15;;;3.05;;
1412;SDS011;701;52.526;13.408;2022-08-04T14:42:54;6.55;;;2.63;;
1412;SDS011;701;52.526;13.408;2022-08-04T14:45:36;7.93;;;2.90;;
1412;SDS011;701;52.526;13.408;2022-08-04T14:48:08;6.80;;;2.85;;
1412;SDS011;701;52.526;13.408;2022-08-04T14:50:45;5.45;;;3.03;;
1412;SDS011;701;52.526;13.408;2022-08-04T14:53:13;8.25;;;3.20;;
1412;SDS011;701;52.526;13.408;2022-08-04T14:55:44;6.32;;;2.95;;
1412;SDS011;701;52.526;13.408;2022-08-04T14:58:17;8.53;;;3.50;;
1412;SDS011;701;52.526;13.408;2022-08-04T15:00:48;5.80;;;2.97;;
1412;SDS011;701;52.526;13.408;2022-08-04T15:03:14;4.72;;;2.50;;
1412;SDS011;701;52.526;13.408;2022-08-04T15:05:43;6.75;;;2.45;;
1412;SDS011;701;52.526;13.408;2022-08-04T15:08:09;7.60;;;2.75;;
1412;SDS011;701;52.526;13.408;2022-08-04T15:10:37;7.97;;;2.93;;
1412;SDS011;701;52.526;13.408;2022-08-04T15:13:03;5.63;;;2.72;;
1412;SDS011;701;52.526;13.408;2022-08-04T15:15:29;7.70;;;3.95;;
1412;SDS011;701;52.526;13.408;2022-08-04T15:17:55;8.90;;;2.80;;
1412;SDS011;701;52.526;13.408;2022-08-04T15:20:21;5.88;;;2.63;;
1412;SDS011;701;52.526;13.408;2022-08-04T15:22:47;7.10;;;2.83;;
1412;SDS011;701;52.526;13.408;2022-08-04T15:25:13;7.60;;;3.00;;
1412;SDS011;701;52.526;13.408;2022-08-04T15:27:40;7.35;;;2.90;;
1412;SDS011;701;52.526;13.408;2022-08-04T15:30:09;5.43;;;2.70;;
1412;SDS011;701;52.526;13.408;2022-08-04T15:32:38;6.75;;;3.05;;
1412;SDS011;701;52.526;13.408;2022-08-04T15:35:26;5.85;;;2.97;;
1412;SDS011;701;52.526;13.408;2022-08-04T15:43:37;5.83;;;2.77;;
1412;SDS011;701;52.526;13.408;2022-08-04T15:47:26;6.97;;;2.85;;
1412;SDS011;701;52.526;13.408;2022-08-04T15:49:29;8.80;;;3.55;;
1412;SDS011;701;52.526;13.408;2022-08-04T15:51:59;7.65;;;3.05;;
1412;SDS011;701;52.526;13.408;2022-08-04T15:54:27;5.97;;;2.83;;
1412;SDS011;701;52.526;13.408;2022-08-04T15:56:53;5.47;;;2.70;;
1412;SDS011;701;52.526;13.408;2022-08-04T16:12:57;5.32;;;2.60;;
1412;SDS011;701;52.526;13.408;2022-08-04T16:18:08;6.45;;;2.40;;
1412;SDS011;701;52.526;13.408;2022-08-04T16:20:35;4.82;;;2.40;;
1412;SDS011;701;52.526;13.408;2022-08-04T16:23:08;5.57;;;3.08;;
1412;SDS011;701;52.526;13.408;2022-08-04T16:25:53;5.10;;;2.40;;
1412;SDS011;701;52.526;13.408;2022-08-04T16:31:03;8.63;;;2.83;;
1412;SDS011;701;52.526;13.408;2022-08-04T16:33:30;7.25;;;2.75;;
1412;SDS011;701;52.526;13.408;2022-08-04T16:35:57;6.13;;;2.65;;
1412;SDS011;701;52.526;13.408;2022-08-04T16:38:24;6.15;;;3.10;;
1412;SDS011;701;52.526;13.408;2022-08-04T16:40:57;5.70;;;2.87;;
1412;SDS011;701;52.526;13.408;2022-08-04T16:43:27;9.70;;;3.03;;
1412;SDS011;701;52.526;13.408;2022-08-04T16:48:25;7.60;;;3.30;;
1412;SDS011;701;52.526;13.408;2022-08-04T16:51:02;5.15;;;2.83;;
1412;SDS011;701;52.526;13.408;2022-08-04T16:56:04;5.53;;;2.60;;
1412;SDS011;701;52.526;13.408;2022-08-04T16:58:32;4.82;;;2.33;;
1412;SDS011;701;52.526;13.408;2022-08-04T17:01:32;5.38;;;3.00;;
1412;SDS011;701;52.526;13.408;2022-08-04T17:03:54;7.00;;;2.60;;
1412;SDS011;701;52.526;13.408;2022-08-04T17:06:20;7.77;;;3.07;;
1412;SDS011;701;52.526;13.408;2022-08-04T17:08:47;5.95;;;2.95;;
1412;SDS011;701;52.526;13.408;2022-08-04T17:11:14;6.18;;;2.67;;
1412;SDS011;701;52.526;13.408;2022-08-04T17:13:42;4.82;;;2.20;;
1412;SDS011;701;52.526;13.408;2022-08-04T17:16:10;5.78;;;2.60;;
1412;SDS011;701;52.526;13.408;2022-08-04T17:18:40;7.33;;;2.60;;
1412;SDS011;701;52.526;13.408;2022-08-04T17:21:17;4.63;;;2.28;;
1412;SDS011;701;52.526;13.408;2022-08-04T17:23:47;6.63;;;2.80;;
1412;SDS011;701;52.526;13.408;2022-08-04T17:26:16;6.45;;;3.13;;
1412;SDS011;701;52.526;13.408;2022-08-04T17:28:47;6.25;;;2.50;;
1412;SDS011;701;52.526;13.408;2022-08-04T17:31:14;8.07;;;2.40;;
1412;SDS011;701;52.526;13.408;2022-08-04T17:33:45;5.90;;;2.70;;
1412;SDS011;701;52.526;13.408;2022-08-04T17:36:12;5.25;;;2.50;;
1412;SDS011;701;52.526;13.408;2022-08-04T17:38:44;7.80;;;2.65;;
1412;SDS011;701;52.526;13.408;2022-08-04T17:41:12;10.15;;;2.70;;
1412;SDS011;701;52.526;13.408;2022-08-04T17:43:45;10.53;;;3.03;;
1412;SDS011;701;52.526;13.408;2022-08-04T17:48:43;9.15;;;2.92;;
1412;SDS011;701;52.526;13.408;2022-08-04T17:51:15;6.78;;;3.08;;
1412;SDS011;701;52.526;13.408;2022-08-04T17:53:42;6.60;;;3.15;;
1412;SDS011;701;52.526;13.408;2022-08-04T17:59:05;5.25;;;2.95;;
1412;SDS011;701;52.526;13.408;2022-08-04T18:01:47;5.65;;;2.83;;
1412;SDS011;701;52.526;13.408;2022-08-04T18:06:55;7.97;;;2.63;;
1412;SDS011;701;52.526;13.408;2022-08-04T18:09:29;7.70;;;3.00;;
1412;SDS011;701;52.526;13.408;2022-08-04T18:11:58;6.47;;;3.08;;
1412;SDS011;701;52.526;13.408;2022-08-04T18:14:42;6.03;;;3.10;;
1412;SDS011;701;52.526;13.408;2022-08-04T18:17:08;5.90;;;2.80;;
1412;SDS011;701;52.526;13.408;2022-08-04T18:19:35;8.70;;;2.65;;
1412;SDS011;701;52.526;13.408;2022-08-04T18:22:02;7.10;;;3.00;;
1412;SDS011;701;52.526;13.408;2022-08-04T18:24:29;7.63;;;2.80;;
1412;SDS011;701;52.526;13.408;2022-08-04T18:26:56;7.97;;;3.30;;
1412;SDS011;701;52.526;13.408;2022-08-04T18:29:21;6.17;;;2.87;;
1412;SDS011;701;52.526;13.408;2022-08-04T18:31:48;6.00;;;2.83;;
1412;SDS011;701;52.526;13.408;2022-08-04T18:34:14;8.27;;;2.90;;
1412;SDS011;701;52.526;13.408;2022-08-04T18:36:40;6.93;;;3.23;;
1412;SDS011;701;52.526;13.408;2022-08-04T18:39:07;5.90;;;3.03;;
1412;SDS011;701;52.526;13.408;2022-08-04T18:41:33;12.32;;;4.22;;
1412;SDS011;701;52.526;13.408;2022-08-04T18:43:59;8.95;;;4.55;;
1412;SDS011;701;52.526;13.408;2022-08-04T18:46:26;12.03;;;4.73;;
1412;SDS011;701;52.526;13.408;2022-08-04T18:48:52;9.43;;;4.03;;
1412;SDS011;701;52.526;13.408;2022-08-04T18:51:18;9.35;;;3.60;;
1412;SDS011;701;52.526;13.408;2022-08-04T18:53:44;9.77;;;3.92;;
1412;SDS011;701;52.526;13.408;2022-08-04T18:56:11;11.40;;;5.55;;
1412;SDS011;701;52.526;13.408;2022-08-04T18:58:37;11.80;;;4.53;;
1412;SDS011;701;52.526;13.408;2022-08-04T19:01:03;9.20;;;5.07;;
1412;SDS011;701;52.526;13.408;2022-08-04T19:03:28;15.40;;;6.22;;
1412;SDS011;701;52.526;13.408;2022-08-04T19:05:54;11.73;;;5.60;;
1412;SDS011;701;52.526;13.408;2022-08-04T19:08:20;13.02;;;5.78;;
1412;SDS011;701;52.526;13.408;2022-08-04T19:10:45;11.17;;;6.60;;
1412;SDS011;701;52.526;13.408;2022-08-04T19:13:11;10.45;;;5.47;;
1412;SDS011;701;52.526;13.408;2022-08-04T19:15:37;12.73;;;6.83;;
1412;SDS011;701;52.526;13.408;2022-08-04T19:18:02;13.15;;;5.93;;
1412;SDS011;701;52.526;13.408;2022-08-04T19:20:28;12.00;;;5.73;;
1412;SDS011;701;52.526;13.408;2022-08-04T19:22:54;13.95;;;7.03;;
1412;SDS011;701;52.526;13.408;2022-08-04T19:25:20;12.47;;;5.97;;
1412;SDS011;701;52.526;13.408;2022-08-04T19:27:49;12.13;;;6.00;;
1412;SDS011;701;52.526;13.408;2022-08-04T19:30:14;11.05;;;6.10;;
1412;SDS011;701;52.526;13.408;2022-08-04T19:32:40;10.75;;;7.20;;
1412;SDS011;701;52.526;13.408;2022-08-04T19:35:06;9.73;;;5.90;;
1412;SDS011;701;52.526;13.408;2022-08-04T19:37:31;10.30;;;5.80;;
1412;SDS011;701;52.526;13.408;2022-08-04T19:39:57;14.07;;;6.07;;
1412;SDS011;701;52.526;13.408;2022-08-04T19:42:23;13.80;;;5.50;;
1412;SDS011;701;52.526;13.408;2022-08-04T19:44:49;12.60;;;5.53;;
1412;SDS011;701;52.526;13.408;2022-08-04T19:47:14;8.37;;;4.67;;
1412;SDS011;701;52.526;13.408;2022-08-04T19:49:40;10.43;;;5.23;;
1412;SDS011;701;52.526;13.408;2022-08-04T19:52:06;11.80;;;5.28;;
1412;SDS011;701;52.526;13.408;2022-08-04T19:54:32;10.13;;;4.87;;
1412;SDS011;701;52.526;13.408;2022-08-04T19:56:58;9.90;;;4.93;;
1412;SDS011;701;52.526;13.408;2022-08-04T19:59:23;9.55;;;4.88;;
1412;SDS011;701;52.526;13.408;2022-08-04T20:01:49;7.90;;;3.67;;
1412;SDS011;701;52.526;13.408;2022-08-04T20:04:15;10.38;;;4.13;;
1412;SDS011;701;52.526;13.408;2022-08-04T20:06:41;9.43;;;4.40;;
1412;SDS011;701;52.526;13.408;2022-08-04T20:09:07;9.07;;;4.28;;